KEAT/EAT METAR and TAF weather

Enter ICAO airport designator
Station Type Date Time Source
KEAT METAR 2021/05/12 00:55 UTC NOAA

KEAT 120055Z AUTO 24005KT 10SM CLR 23/M01 A3005 RMK AO2 SLP173 T02281011


Station Type Date Time Source
KEAT Decoded METAR 2021/05/12 00:55 UTC NOAA

WENATCHEE PANGBORN MEMO, WA, United States (KEAT) 47-24N 120-12W 377M
May 11, 2021 - 08:55 PM EDT / 2021.05.12 0055 UTC
Wind: from the WSW (240 degrees) at 6 MPH (5 KT):0
Visibility: 10 mile(s):0
Sky conditions: clear
Temperature: 73.0 F (22.8 C)
Dew Point: 30.0 F (-1.1 C)
Relative Humidity: 20%
Pressure (altimeter): 30.05 in. Hg (1017 hPa)
ob: KEAT 120055Z AUTO 24005KT 10SM CLR 23/M01 A3005 RMK AO2 SLP173 T02281011
cycle: 1

Station Type Date Time Source
KEAT TAF 2021/05/11 18:24 UTC NOAA

TAF KEAT 111722Z 1118/1218 29010KT P6SM SCT250
FM111900 12006KT P6SM FEW070 SCT250
FM120500 31006KT P6SM BKN250
FM121100 29007KT P6SM BKN100 OVC150

Example: see airport list